sensor_id;sensor_type;location;lat;lon;timestamp;temperature;humidity
75153;HTU21D;63734;45.218;36.708;2023-02-25T00:01:19;6.56;84.70
75153;HTU21D;63734;45.218;36.708;2023-02-25T00:03:52;6.55;84.75
75153;HTU21D;63734;45.218;36.708;2023-02-25T00:06:19;6.56;84.80
75153;HTU21D;63734;45.218;36.708;2023-02-25T00:08:47;6.57;84.80
75153;HTU21D;63734;45.218;36.708;2023-02-25T00:11:15;6.57;85.14
75153;HTU21D;63734;45.218;36.708;2023-02-25T00:13:42;6.57;85.37
75153;HTU21D;63734;45.218;36.708;2023-02-25T00:16:09;6.56;85.58
75153;HTU21D;63734;45.218;36.708;2023-02-25T00:18:35;6.57;85.50
75153;HTU21D;63734;45.218;36.708;2023-02-25T00:21:05;6.60;85.64
75153;HTU21D;63734;45.218;36.708;2023-02-25T00:23:32;6.65;85.60
75153;HTU21D;63734;45.218;36.708;2023-02-25T00:25:59;6.63;85.63
75153;HTU21D;63734;45.218;36.708;2023-02-25T00:28:25;6.65;85.82
75153;HTU21D;63734;45.218;36.708;2023-02-25T00:30:51;6.65;85.97
75153;HTU21D;63734;45.218;36.708;2023-02-25T00:33:17;6.69;86.25
75153;HTU21D;63734;45.218;36.708;2023-02-25T00:35:43;6.71;86.33
75153;HTU21D;63734;45.218;36.708;2023-02-25T00:38:10;6.71;86.44
75153;HTU21D;63734;45.218;36.708;2023-02-25T00:40:38;6.72;86.67
75153;HTU21D;63734;45.218;36.708;2023-02-25T00:43:06;6.72;86.79
75153;HTU21D;63734;45.218;36.708;2023-02-25T00:45:32;6.73;86.92
75153;HTU21D;63734;45.218;36.708;2023-02-25T00:47:58;6.73;87.15
75153;HTU21D;63734;45.218;36.708;2023-02-25T00:50:25;6.74;87.29
75153;HTU21D;63734;45.218;36.708;2023-02-25T00:52:51;6.78;87.24
75153;HTU21D;63734;45.218;36.708;2023-02-25T00:55:17;6.80;87.28
75153;HTU21D;63734;45.218;36.708;2023-02-25T00:57:43;6.81;87.38
75153;HTU21D;63734;45.218;36.708;2023-02-25T01:00:10;6.82;87.45
75153;HTU21D;63734;45.218;36.708;2023-02-25T01:02:45;6.83;87.48
75153;HTU21D;63734;45.218;36.708;2023-02-25T01:05:12;6.85;87.48
75153;HTU21D;63734;45.218;36.708;2023-02-25T01:07:40;6.86;87.58
75153;HTU21D;63734;45.218;36.708;2023-02-25T01:10:07;6.88;87.64
75153;HTU21D;63734;45.218;36.708;2023-02-25T01:12:35;6.89;87.90
75153;HTU21D;63734;45.218;36.708;2023-02-25T01:15:02;6.91;88.19
75153;HTU21D;63734;45.218;36.708;2023-02-25T01:17:28;6.96;88.30
75153;HTU21D;63734;45.218;36.708;2023-02-25T01:19:54;6.95;88.41
75153;HTU21D;63734;45.218;36.708;2023-02-25T01:22:22;6.97;88.60
75153;HTU21D;63734;45.218;36.708;2023-02-25T01:24:48;6.97;88.57
75153;HTU21D;63734;45.218;36.708;2023-02-25T01:27:15;6.96;88.92
75153;HTU21D;63734;45.218;36.708;2023-02-25T01:29:42;6.98;88.96
75153;HTU21D;63734;45.218;36.708;2023-02-25T01:32:10;6.97;89.04
75153;HTU21D;63734;45.218;36.708;2023-02-25T01:34:39;6.99;89.14
75153;HTU21D;63734;45.218;36.708;2023-02-25T01:37:07;7.01;89.38
75153;HTU21D;63734;45.218;36.708;2023-02-25T01:39:35;7.03;89.49
75153;HTU21D;63734;45.218;36.708;2023-02-25T01:42:04;7.03;89.67
75153;HTU21D;63734;45.218;36.708;2023-02-25T01:47:45;7.03;90.00
75153;HTU21D;63734;45.218;36.708;2023-02-25T01:50:11;7.03;89.93
75153;HTU21D;63734;45.218;36.708;2023-02-25T01:52:39;7.03;90.08
75153;HTU21D;63734;45.218;36.708;2023-02-25T01:55:08;7.03;90.19
75153;HTU21D;63734;45.218;36.708;2023-02-25T01:57:35;7.03;90.27
75153;HTU21D;63734;45.218;36.708;2023-02-25T02:00:05;7.07;90.33
75153;HTU21D;63734;45.218;36.708;2023-02-25T02:02:38;7.05;90.28
75153;HTU21D;63734;45.218;36.708;2023-02-25T02:05:05;7.07;90.27
75153;HTU21D;63734;45.218;36.708;2023-02-25T02:07:32;7.07;90.24
75153;HTU21D;63734;45.218;36.708;2023-02-25T02:09:58;7.05;90.31
75153;HTU21D;63734;45.218;36.708;2023-02-25T02:12:31;7.03;90.44
75153;HTU21D;63734;45.218;36.708;2023-02-25T02:15:01;7.03;90.45
75153;HTU21D;63734;45.218;36.708;2023-02-25T02:17:39;7.00;90.37
75153;HTU21D;63734;45.218;36.708;2023-02-25T02:20:23;6.99;90.24
75153;HTU21D;63734;45.218;36.708;2023-02-25T02:23:04;6.97;90.28
75153;HTU21D;63734;45.218;36.708;2023-02-25T02:25:56;6.96;90.08
75153;HTU21D;63734;45.218;36.708;2023-02-25T02:34:44;7.05;89.42
75153;HTU21D;63734;45.218;36.708;2023-02-25T02:37:33;7.08;89.12
75153;HTU21D;63734;45.218;36.708;2023-02-25T02:47:48;7.13;88.60
75153;HTU21D;63734;45.218;36.708;2023-02-25T02:50:31;7.17;88.58
75153;HTU21D;63734;45.218;36.708;2023-02-25T02:53:05;7.20;88.47
75153;HTU21D;63734;45.218;36.708;2023-02-25T02:55:39;7.22;88.46
75153;HTU21D;63734;45.218;36.708;2023-02-25T02:58:12;7.24;88.46
75153;HTU21D;63734;45.218;36.708;2023-02-25T03:00:43;7.25;88.44
75153;HTU21D;63734;45.218;36.708;2023-02-25T03:03:15;7.26;88.35
75153;HTU21D;63734;45.218;36.708;2023-02-25T03:05:45;7.28;88.28
75153;HTU21D;63734;45.218;36.708;2023-02-25T03:08:21;7.30;88.07
75153;HTU21D;63734;45.218;36.708;2023-02-25T03:10:50;7.33;87.96
75153;HTU21D;63734;45.218;36.708;2023-02-25T03:13:19;7.35;87.80
75153;HTU21D;63734;45.218;36.708;2023-02-25T03:15:47;7.38;87.66
75153;HTU21D;63734;45.218;36.708;2023-02-25T03:18:40;7.40;87.50
75153;HTU21D;63734;45.218;36.708;2023-02-25T03:21:14;7.43;87.20
75153;HTU21D;63734;45.218;36.708;2023-02-25T03:23:45;7.45;86.95
75153;HTU21D;63734;45.218;36.708;2023-02-25T03:26:23;7.47;86.83
75153;HTU21D;63734;45.218;36.708;2023-02-25T03:28:54;7.50;86.80
75153;HTU21D;63734;45.218;36.708;2023-02-25T03:31:25;7.52;86.96
75153;HTU21D;63734;45.218;36.708;2023-02-25T03:34:01;7.53;87.10
75153;HTU21D;63734;45.218;36.708;2023-02-25T03:36:35;7.52;87.38
75153;HTU21D;63734;45.218;36.708;2023-02-25T03:39:08;7.53;87.73
75153;HTU21D;63734;45.218;36.708;2023-02-25T03:41:41;7.54;87.80
75153;HTU21D;63734;45.218;36.708;2023-02-25T03:44:14;7.53;88.01
75153;HTU21D;63734;45.218;36.708;2023-02-25T03:46:43;7.53;88.22
75153;HTU21D;63734;45.218;36.708;2023-02-25T03:49:15;7.50;88.42
75153;HTU21D;63734;45.218;36.708;2023-02-25T03:51:45;7.52;88.54
75153;HTU21D;63734;45.218;36.708;2023-02-25T03:54:13;7.53;88.57
75153;HTU21D;63734;45.218;36.708;2023-02-25T03:56:45;7.54;88.56
75153;HTU21D;63734;45.218;36.708;2023-02-25T03:59:13;7.58;88.58
75153;HTU21D;63734;45.218;36.708;2023-02-25T04:01:41;7.57;88.60
75153;HTU21D;63734;45.218;36.708;2023-02-25T04:04:08;7.58;88.64
75153;HTU21D;63734;45.218;36.708;2023-02-25T04:06:34;7.58;88.67
75153;HTU21D;63734;45.218;36.708;2023-02-25T04:09:01;7.58;88.70
75153;HTU21D;63734;45.218;36.708;2023-02-25T04:11:27;7.56;88.76
75153;HTU21D;63734;45.218;36.708;2023-02-25T04:13:53;7.55;88.75
75153;HTU21D;63734;45.218;36.708;2023-02-25T04:16:20;7.55;88.89
75153;HTU21D;63734;45.218;36.708;2023-02-25T04:18:46;7.57;88.97
75153;HTU21D;63734;45.218;36.708;2023-02-25T04:21:33;7.55;88.89
75153;HTU21D;63734;45.218;36.708;2023-02-25T04:24:03;7.56;89.31
75153;HTU21D;63734;45.218;36.708;2023-02-25T04:26:32;7.56;89.40
75153;HTU21D;63734;45.218;36.708;2023-02-25T04:28:59;7.55;89.40
75153;HTU21D;63734;45.218;36.708;2023-02-25T04:31:25;7.53;89.54
75153;HTU21D;63734;45.218;36.708;2023-02-25T04:33:51;7.52;89.77
75153;HTU21D;63734;45.218;36.708;2023-02-25T04:36:33;7.48;89.87
75153;HTU21D;63734;45.218;36.708;2023-02-25T04:39:03;7.46;90.03
75153;HTU21D;63734;45.218;36.708;2023-02-25T04:41:31;7.44;90.17
75153;HTU21D;63734;45.218;36.708;2023-02-25T04:43:58;7.45;90.39
75153;HTU21D;63734;45.218;36.708;2023-02-25T04:46:24;7.46;90.54
75153;HTU21D;63734;45.218;36.708;2023-02-25T04:48:50;7.46;90.66
75153;HTU21D;63734;45.218;36.708;2023-02-25T04:51:16;7.49;90.69
75153;HTU21D;63734;45.218;36.708;2023-02-25T04:53:42;7.57;91.06
75153;HTU21D;63734;45.218;36.708;2023-02-25T04:56:09;7.69;91.04
75153;HTU21D;63734;45.218;36.708;2023-02-25T04:58:36;7.81;90.81
75153;HTU21D;63734;45.218;36.708;2023-02-25T05:01:04;7.91;90.47
75153;HTU21D;63734;45.218;36.708;2023-02-25T05:03:31;8.00;90.14
75153;HTU21D;63734;45.218;36.708;2023-02-25T05:06:02;8.06;89.84
75153;HTU21D;63734;45.218;36.708;2023-02-25T05:08:28;8.09;89.72
75153;HTU21D;63734;45.218;36.708;2023-02-25T05:10:54;8.17;89.69
75153;HTU21D;63734;45.218;36.708;2023-02-25T05:13:21;8.30;89.43
75153;HTU21D;63734;45.218;36.708;2023-02-25T05:15:47;8.37;89.03
75153;HTU21D;63734;45.218;36.708;2023-02-25T05:18:13;8.42;88.90
75153;HTU21D;63734;45.218;36.708;2023-02-25T05:20:48;8.52;88.71
75153;HTU21D;63734;45.218;36.708;2023-02-25T05:23:14;8.65;88.18
75153;HTU21D;63734;45.218;36.708;2023-02-25T05:25:40;8.76;87.89
75153;HTU21D;63734;45.218;36.708;2023-02-25T05:28:08;8.90;87.51
75153;HTU21D;63734;45.218;36.708;2023-02-25T05:30:34;9.07;87.11
75153;HTU21D;63734;45.218;36.708;2023-02-25T05:33:01;9.26;86.66
75153;HTU21D;63734;45.218;36.708;2023-02-25T05:35:27;9.42;86.22
75153;HTU21D;63734;45.218;36.708;2023-02-25T05:37:53;9.57;85.46
75153;HTU21D;63734;45.218;36.708;2023-02-25T05:40:19;9.48;85.13
75153;HTU21D;63734;45.218;36.708;2023-02-25T05:42:45;9.31;85.59
75153;HTU21D;63734;45.218;36.708;2023-02-25T05:45:14;9.15;86.25
75153;HTU21D;63734;45.218;36.708;2023-02-25T05:47:40;9.06;86.70
75153;HTU21D;63734;45.218;36.708;2023-02-25T05:50:07;9.00;87.12
75153;HTU21D;63734;45.218;36.708;2023-02-25T05:52:34;8.98;87.40
75153;HTU21D;63734;45.218;36.708;2023-02-25T05:55:00;8.94;87.67
75153;HTU21D;63734;45.218;36.708;2023-02-25T05:57:26;8.91;87.81
75153;HTU21D;63734;45.218;36.708;2023-02-25T05:59:52;8.90;87.92
75153;HTU21D;63734;45.218;36.708;2023-02-25T06:02:18;8.88;88.08
75153;HTU21D;63734;45.218;36.708;2023-02-25T06:04:45;8.85;88.27
75153;HTU21D;63734;45.218;36.708;2023-02-25T06:07:13;8.86;88.57
75153;HTU21D;63734;45.218;36.708;2023-02-25T06:09:39;8.85;88.86
75153;HTU21D;63734;45.218;36.708;2023-02-25T06:12:05;8.87;89.11
75153;HTU21D;63734;45.218;36.708;2023-02-25T06:14:33;8.87;89.25
75153;HTU21D;63734;45.218;36.708;2023-02-25T06:16:59;8.87;89.28
75153;HTU21D;63734;45.218;36.708;2023-02-25T06:19:25;8.93;89.44
75153;HTU21D;63734;45.218;36.708;2023-02-25T06:21:52;9.04;89.40
75153;HTU21D;63734;45.218;36.708;2023-02-25T06:24:20;9.17;88.92
75153;HTU21D;63734;45.218;36.708;2023-02-25T06:26:46;9.33;88.52
75153;HTU21D;63734;45.218;36.708;2023-02-25T06:29:12;9.46;87.73
75153;HTU21D;63734;45.218;36.708;2023-02-25T06:31:38;9.47;87.32
75153;HTU21D;63734;45.218;36.708;2023-02-25T06:34:05;9.52;87.48
75153;HTU21D;63734;45.218;36.708;2023-02-25T06:36:31;9.67;87.32
75153;HTU21D;63734;45.218;36.708;2023-02-25T06:38:58;9.88;86.64
75153;HTU21D;63734;45.218;36.708;2023-02-25T06:41:24;10.11;85.61
75153;HTU21D;63734;45.218;36.708;2023-02-25T06:43:51;10.28;84.95
75153;HTU21D;63734;45.218;36.708;2023-02-25T06:46:20;10.50;84.61
75153;HTU21D;63734;45.218;36.708;2023-02-25T06:48:47;10.64;83.61
75153;HTU21D;63734;45.218;36.708;2023-02-25T06:51:13;10.69;82.97
75153;HTU21D;63734;45.218;36.708;2023-02-25T06:53:41;10.69;82.78
75153;HTU21D;63734;45.218;36.708;2023-02-25T06:56:09;10.72;82.53
75153;HTU21D;63734;45.218;36.708;2023-02-25T06:58:36;10.53;83.10
75153;HTU21D;63734;45.218;36.708;2023-02-25T07:01:10;10.35;83.65
75153;HTU21D;63734;45.218;36.708;2023-02-25T07:03:37;10.31;84.25
75153;HTU21D;63734;45.218;36.708;2023-02-25T07:06:03;10.35;84.39
75153;HTU21D;63734;45.218;36.708;2023-02-25T07:08:29;10.33;84.21
75153;HTU21D;63734;45.218;36.708;2023-02-25T07:10:55;10.16;84.81
75153;HTU21D;63734;45.218;36.708;2023-02-25T07:13:21;10.03;85.30
75153;HTU21D;63734;45.218;36.708;2023-02-25T07:15:47;9.97;85.91
75153;HTU21D;63734;45.218;36.708;2023-02-25T07:18:14;9.85;86.47
75153;HTU21D;63734;45.218;36.708;2023-02-25T07:20:40;9.82;86.72
75153;HTU21D;63734;45.218;36.708;2023-02-25T07:23:07;9.77;87.00
75153;HTU21D;63734;45.218;36.708;2023-02-25T07:25:33;9.71;87.38
75153;HTU21D;63734;45.218;36.708;2023-02-25T07:28:04;9.68;87.49
75153;HTU21D;63734;45.218;36.708;2023-02-25T07:30:36;9.77;87.56
75153;HTU21D;63734;45.218;36.708;2023-02-25T07:33:02;9.78;87.37
75153;HTU21D;63734;45.218;36.708;2023-02-25T07:35:28;9.79;87.78
75153;HTU21D;63734;45.218;36.708;2023-02-25T07:37:55;9.83;87.67
75153;HTU21D;63734;45.218;36.708;2023-02-25T07:40:21;9.82;87.90
75153;HTU21D;63734;45.218;36.708;2023-02-25T07:42:48;9.85;87.78
75153;HTU21D;63734;45.218;36.708;2023-02-25T07:45:19;9.79;87.96
75153;HTU21D;63734;45.218;36.708;2023-02-25T07:47:45;9.79;88.12
75153;HTU21D;63734;45.218;36.708;2023-02-25T07:50:11;9.83;88.21
75153;HTU21D;63734;45.218;36.708;2023-02-25T07:52:38;9.93;88.16
75153;HTU21D;63734;45.218;36.708;2023-02-25T07:55:04;10.07;87.78
75153;HTU21D;63734;45.218;36.708;2023-02-25T07:57:31;10.15;87.12
75153;HTU21D;63734;45.218;36.708;2023-02-25T07:59:57;10.20;87.21
75153;HTU21D;63734;45.218;36.708;2023-02-25T08:02:24;10.30;86.93
75153;HTU21D;63734;45.218;36.708;2023-02-25T08:04:50;10.49;86.86
75153;HTU21D;63734;45.218;36.708;2023-02-25T08:07:16;10.71;86.21
75153;HTU21D;63734;45.218;36.708;2023-02-25T08:09:42;10.72;85.35
75153;HTU21D;63734;45.218;36.708;2023-02-25T08:12:09;10.68;85.16
75153;HTU21D;63734;45.218;36.708;2023-02-25T08:14:36;10.62;85.23
75153;HTU21D;63734;45.218;36.708;2023-02-25T08:17:03;10.68;85.65
75153;HTU21D;63734;45.218;36.708;2023-02-25T08:19:29;10.90;85.30
75153;HTU21D;63734;45.218;36.708;2023-02-25T08:21:55;11.04;84.93
75153;HTU21D;63734;45.218;36.708;2023-02-25T08:24:22;11.05;84.15
75153;HTU21D;63734;45.218;36.708;2023-02-25T08:26:48;10.84;84.03
75153;HTU21D;63734;45.218;36.708;2023-02-25T08:29:14;10.67;85.14
75153;HTU21D;63734;45.218;36.708;2023-02-25T08:31:40;10.65;85.54
75153;HTU21D;63734;45.218;36.708;2023-02-25T08:34:06;10.56;85.68
75153;HTU21D;63734;45.218;36.708;2023-02-25T08:36:32;10.41;85.92
75153;HTU21D;63734;45.218;36.708;2023-02-25T08:38:59;10.27;86.57
75153;HTU21D;63734;45.218;36.708;2023-02-25T08:41:27;10.16;87.34
75153;HTU21D;63734;45.218;36.708;2023-02-25T08:43:55;10.07;88.02
75153;HTU21D;63734;45.218;36.708;2023-02-25T08:46:25;10.14;88.67
75153;HTU21D;63734;45.218;36.708;2023-02-25T08:48:53;10.38;88.25
75153;HTU21D;63734;45.218;36.708;2023-02-25T08:51:21;10.36;86.94
75153;HTU21D;63734;45.218;36.708;2023-02-25T08:53:48;10.29;87.61
75153;HTU21D;63734;45.218;36.708;2023-02-25T08:56:15;10.29;87.65
75153;HTU21D;63734;45.218;36.708;2023-02-25T08:58:41;10.27;87.54
75153;HTU21D;63734;45.218;36.708;2023-02-25T09:01:10;10.23;87.70
75153;HTU21D;63734;45.218;36.708;2023-02-25T09:03:40;10.24;88.09
75153;HTU21D;63734;45.218;36.708;2023-02-25T09:06:16;10.35;87.86
75153;HTU21D;63734;45.218;36.708;2023-02-25T09:08:43;10.36;87.86
75153;HTU21D;63734;45.218;36.708;2023-02-25T09:11:09;10.48;87.67
75153;HTU21D;63734;45.218;36.708;2023-02-25T09:13:36;10.54;87.27
75153;HTU21D;63734;45.218;36.708;2023-02-25T09:16:05;10.59;87.01
75153;HTU21D;63734;45.218;36.708;2023-02-25T09:18:32;10.65;87.38
75153;HTU21D;63734;45.218;36.708;2023-02-25T09:20:58;10.73;86.64
75153;HTU21D;63734;45.218;36.708;2023-02-25T09:23:24;10.82;86.52
75153;HTU21D;63734;45.218;36.708;2023-02-25T09:25:51;10.88;86.33
75153;HTU21D;63734;45.218;36.708;2023-02-25T09:28:17;10.83;86.03
75153;HTU21D;63734;45.218;36.708;2023-02-25T09:30:46;10.79;86.25
75153;HTU21D;63734;45.218;36.708;2023-02-25T09:33:13;10.74;86.25
75153;HTU21D;63734;45.218;36.708;2023-02-25T09:35:39;10.72;86.61
75153;HTU21D;63734;45.218;36.708;2023-02-25T09:38:08;10.65;86.86
75153;HTU21D;63734;45.218;36.708;2023-02-25T09:40:35;10.60;86.93
75153;HTU21D;63734;45.218;36.708;2023-02-25T09:43:22;10.67;87.29
75153;HTU21D;63734;45.218;36.708;2023-02-25T09:45:57;10.75;86.90
75153;HTU21D;63734;45.218;36.708;2023-02-25T09:48:27;10.83;86.70
75153;HTU21D;63734;45.218;36.708;2023-02-25T09:51:03;10.78;86.35
75153;HTU21D;63734;45.218;36.708;2023-02-25T09:53:39;10.74;86.68
75153;HTU21D;63734;45.218;36.708;2023-02-25T09:56:07;10.78;86.78
75153;HTU21D;63734;45.218;36.708;2023-02-25T09:58:51;10.75;86.91
75153;HTU21D;63734;45.218;36.708;2023-02-25T10:01:48;10.77;86.92
75153;HTU21D;63734;45.218;36.708;2023-02-25T10:04:22;10.80;86.55
75153;HTU21D;63734;45.218;36.708;2023-02-25T10:06:50;10.77;86.64
75153;HTU21D;63734;45.218;36.708;2023-02-25T10:22:54;11.31;85.62
75153;HTU21D;63734;45.218;36.708;2023-02-25T10:25:25;11.17;84.74
75153;HTU21D;63734;45.218;36.708;2023-02-25T10:27:58;11.15;86.01
75153;HTU21D;63734;45.218;36.708;2023-02-25T10:33:23;11.16;84.97
75153;HTU21D;63734;45.218;36.708;2023-02-25T10:35:55;11.05;85.82
75153;HTU21D;63734;45.218;36.708;2023-02-25T10:38:22;11.07;85.90
75153;HTU21D;63734;45.218;36.708;2023-02-25T10:40:56;11.03;85.93
75153;HTU21D;63734;45.218;36.708;2023-02-25T10:43:25;10.96;86.06
75153;HTU21D;63734;45.218;36.708;2023-02-25T10:46:16;10.92;86.65
75153;HTU21D;63734;45.218;36.708;2023-02-25T10:48:55;10.99;86.61
75153;HTU21D;63734;45.218;36.708;2023-02-25T12:34:15;11.55;85.43
75153;HTU21D;63734;45.218;36.708;2023-02-25T12:39:52;11.49;84.61
75153;HTU21D;63734;45.218;36.708;2023-02-25T12:50:49;11.27;85.71
75153;HTU21D;63734;45.218;36.708;2023-02-25T12:53:48;11.25;85.64
75153;HTU21D;63734;45.218;36.708;2023-02-25T12:56:46;11.17;85.46
75153;HTU21D;63734;45.218;36.708;2023-02-25T13:02:03;11.18;85.76
75153;HTU21D;63734;45.218;36.708;2023-02-25T13:16:20;10.97;85.99
75153;HTU21D;63734;45.218;36.708;2023-02-25T13:24:48;10.87;85.91
75153;HTU21D;63734;45.218;36.708;2023-02-25T13:30:10;10.82;86.45
75153;HTU21D;63734;45.218;36.708;2023-02-25T13:35:24;10.73;87.12
75153;HTU21D;63734;45.218;36.708;2023-02-25T13:40:58;10.69;87.44
75153;HTU21D;63734;45.218;36.708;2023-02-25T13:46:51;10.65;87.25
75153;HTU21D;63734;45.218;36.708;2023-02-25T13:52:34;10.58;87.06
75153;HTU21D;63734;45.218;36.708;2023-02-25T13:58:18;10.46;87.32
75153;HTU21D;63734;45.218;36.708;2023-02-25T14:07:12;10.33;87.87
75153;HTU21D;63734;45.218;36.708;2023-02-25T14:09:50;10.29;87.81
75153;HTU21D;63734;45.218;36.708;2023-02-25T14:24:03;10.06;89.24
75153;HTU21D;63734;45.218;36.708;2023-02-25T14:29:23;10.00;89.17
75153;HTU21D;63734;45.218;36.708;2023-02-25T14:38:07;9.89;89.51
75153;HTU21D;63734;45.218;36.708;2023-02-25T14:43:31;9.77;90.32
75153;HTU21D;63734;45.218;36.708;2023-02-25T14:49:22;9.60;91.30
75153;HTU21D;63734;45.218;36.708;2023-02-25T14:52:03;9.53;91.59
75153;HTU21D;63734;45.218;36.708;2023-02-25T15:03:08;9.27;93.66
75153;HTU21D;63734;45.218;36.708;2023-02-25T15:09:17;9.19;94.24
75153;HTU21D;63734;45.218;36.708;2023-02-25T15:20:24;9.06;94.88
75153;HTU21D;63734;45.218;36.708;2023-02-25T15:26:20;9.04;95.19
75153;HTU21D;63734;45.218;36.708;2023-02-25T15:38:45;9.02;96.54
75153;HTU21D;63734;45.218;36.708;2023-02-25T15:51:50;9.05;97.41
75153;HTU21D;63734;45.218;36.708;2023-02-25T15:57:00;9.09;97.59
75153;HTU21D;63734;45.218;36.708;2023-02-25T15:59:43;9.11;97.52
75153;HTU21D;63734;45.218;36.708;2023-02-25T16:07:50;9.05;97.80
75153;HTU21D;63734;45.218;36.708;2023-02-25T16:10:23;9.04;97.95
75153;HTU21D;63734;45.218;36.708;2023-02-25T16:12:53;9.02;98.06
75153;HTU21D;63734;45.218;36.708;2023-02-25T16:17:59;8.98;98.35
75153;HTU21D;63734;45.218;36.708;2023-02-25T16:20:30;9.00;98.37
75153;HTU21D;63734;45.218;36.708;2023-02-25T16:23:00;8.98;98.39
75153;HTU21D;63734;45.218;36.708;2023-02-25T16:25:42;9.00;98.50
75153;HTU21D;63734;45.218;36.708;2023-02-25T16:31:18;9.01;98.52
75153;HTU21D;63734;45.218;36.708;2023-02-25T16:39:19;8.98;98.51
75153;HTU21D;63734;45.218;36.708;2023-02-25T16:41:48;8.98;98.51
75153;HTU21D;63734;45.218;36.708;2023-02-25T16:44:32;8.98;98.58
75153;HTU21D;63734;45.218;36.708;2023-02-25T16:47:00;9.01;98.66
75153;HTU21D;63734;45.218;36.708;2023-02-25T16:49:38;9.03;98.61
75153;HTU21D;63734;45.218;36.708;2023-02-25T16:52:20;9.03;98.54
75153;HTU21D;63734;45.218;36.708;2023-02-25T16:54:53;9.05;98.71
75153;HTU21D;63734;45.218;36.708;2023-02-25T16:57:22;9.03;98.89
75153;HTU21D;63734;45.218;36.708;2023-02-25T16:59:49;9.04;99.00
75153;HTU21D;63734;45.218;36.708;2023-02-25T17:02:21;9.01;98.91
75153;HTU21D;63734;45.218;36.708;2023-02-25T17:04:52;9.04;99.08
75153;HTU21D;63734;45.218;36.708;2023-02-25T17:07:24;9.05;99.26
75153;HTU21D;63734;45.218;36.708;2023-02-25T17:09:55;9.07;99.26
75153;HTU21D;63734;45.218;36.708;2023-02-25T17:12:42;9.08;99.20
75153;HTU21D;63734;45.218;36.708;2023-02-25T17:15:16;9.07;99.25
75153;HTU21D;63734;45.218;36.708;2023-02-25T17:17:45;9.06;99.21
75153;HTU21D;63734;45.218;36.708;2023-02-25T17:20:19;9.10;99.26
75153;HTU21D;63734;45.218;36.708;2023-02-25T17:22:50;9.09;99.17
75153;HTU21D;63734;45.218;36.708;2023-02-25T17:25:19;9.08;99.12
75153;HTU21D;63734;45.218;36.708;2023-02-25T17:27:48;9.08;99.06
75153;HTU21D;63734;45.218;36.708;2023-02-25T17:30:35;9.08;99.07
75153;HTU21D;63734;45.218;36.708;2023-02-25T17:33:02;9.08;99.00
75153;HTU21D;63734;45.218;36.708;2023-02-25T17:35:29;9.09;99.00
75153;HTU21D;63734;45.218;36.708;2023-02-25T17:37:56;9.08;98.96
75153;HTU21D;63734;45.218;36.708;2023-02-25T17:40:28;9.06;98.94
75153;HTU21D;63734;45.218;36.708;2023-02-25T17:43:16;9.04;98.87
75153;HTU21D;63734;45.218;36.708;2023-02-25T17:45:48;9.03;98.77
75153;HTU21D;63734;45.218;36.708;2023-02-25T17:48:26;9.02;98.76
75153;HTU21D;63734;45.218;36.708;2023-02-25T17:51:00;9.03;98.80
75153;HTU21D;63734;45.218;36.708;2023-02-25T17:53:54;9.03;98.99
75153;HTU21D;63734;45.218;36.708;2023-02-25T17:56:28;9.04;98.97
75153;HTU21D;63734;45.218;36.708;2023-02-25T17:59:00;9.04;98.97
75153;HTU21D;63734;45.218;36.708;2023-02-25T18:01:47;9.07;99.12
75153;HTU21D;63734;45.218;36.708;2023-02-25T18:04:32;9.12;99.06
75153;HTU21D;63734;45.218;36.708;2023-02-25T18:07:27;9.16;98.91
75153;HTU21D;63734;45.218;36.708;2023-02-25T18:09:55;9.18;98.80
75153;HTU21D;63734;45.218;36.708;2023-02-25T18:12:35;9.21;98.76
75153;HTU21D;63734;45.218;36.708;2023-02-25T18:17:42;9.26;98.64
75153;HTU21D;63734;45.218;36.708;2023-02-25T18:20:31;9.29;98.61
75153;HTU21D;63734;45.218;36.708;2023-02-25T18:23:01;9.25;98.47
75153;HTU21D;63734;45.218;36.708;2023-02-25T18:27:58;9.25;98.52
75153;HTU21D;63734;45.218;36.708;2023-02-25T18:30:26;9.25;98.61
75153;HTU21D;63734;45.218;36.708;2023-02-25T18:32:53;9.24;98.65
75153;HTU21D;63734;45.218;36.708;2023-02-25T18:35:19;9.24;98.64
75153;HTU21D;63734;45.218;36.708;2023-02-25T18:37:51;9.24;98.70
75153;HTU21D;63734;45.218;36.708;2023-02-25T18:40:32;9.23;98.74
75153;HTU21D;63734;45.218;36.708;2023-02-25T18:43:00;9.24;98.90
75153;HTU21D;63734;45.218;36.708;2023-02-25T18:45:30;9.25;99.00
75153;HTU21D;63734;45.218;36.708;2023-02-25T18:47:56;9.27;99.08
75153;HTU21D;63734;45.218;36.708;2023-02-25T18:50:28;9.32;99.06
75153;HTU21D;63734;45.218;36.708;2023-02-25T18:52:55;9.31;99.02
75153;HTU21D;63734;45.218;36.708;2023-02-25T18:55:27;9.34;98.93
75153;HTU21D;63734;45.218;36.708;2023-02-25T18:57:54;9.35;98.86
75153;HTU21D;63734;45.218;36.708;2023-02-25T19:00:22;9.37;98.79
75153;HTU21D;63734;45.218;36.708;2023-02-25T19:02:54;9.35;98.76
75153;HTU21D;63734;45.218;36.708;2023-02-25T19:05:23;9.36;98.79
75153;HTU21D;63734;45.218;36.708;2023-02-25T19:07:50;9.39;98.58
75153;HTU21D;63734;45.218;36.708;2023-02-25T19:10:25;9.38;98.49
75153;HTU21D;63734;45.218;36.708;2023-02-25T19:12:59;9.37;98.33
75153;HTU21D;63734;45.218;36.708;2023-02-25T19:15:28;9.35;98.24
75153;HTU21D;63734;45.218;36.708;2023-02-25T19:17:56;9.30;98.23
75153;HTU21D;63734;45.218;36.708;2023-02-25T19:20:23;9.26;98.30
75153;HTU21D;63734;45.218;36.708;2023-02-25T19:22:51;9.21;98.42
75153;HTU21D;63734;45.218;36.708;2023-02-25T19:25:24;9.18;98.49
75153;HTU21D;63734;45.218;36.708;2023-02-25T19:27:52;9.14;98.59
75153;HTU21D;63734;45.218;36.708;2023-02-25T19:30:22;9.11;98.70
75153;HTU21D;63734;45.218;36.708;2023-02-25T19:32:48;9.09;98.73
75153;HTU21D;63734;45.218;36.708;2023-02-25T19:35:15;9.08;98.84
75153;HTU21D;63734;45.218;36.708;2023-02-25T19:37:43;9.07;99.00
75153;HTU21D;63734;45.218;36.708;2023-02-25T19:40:13;9.07;99.16
75153;HTU21D;63734;45.218;36.708;2023-02-25T19:42:42;9.09;99.37
75153;HTU21D;63734;45.218;36.708;2023-02-25T19:45:12;9.12;99.44
75153;HTU21D;63734;45.218;36.708;2023-02-25T19:47:40;9.14;99.40
75153;HTU21D;63734;45.218;36.708;2023-02-25T19:50:07;9.16;99.36
75153;HTU21D;63734;45.218;36.708;2023-02-25T19:52:33;9.20;99.21
75153;HTU21D;63734;45.218;36.708;2023-02-25T19:55:00;9.21;99.03
75153;HTU21D;63734;45.218;36.708;2023-02-25T19:57:26;9.22;98.90
75153;HTU21D;63734;45.218;36.708;2023-02-25T19:59:52;9.23;98.79
75153;HTU21D;63734;45.218;36.708;2023-02-25T20:02:18;9.24;98.57
75153;HTU21D;63734;45.218;36.708;2023-02-25T20:04:47;9.25;98.45
75153;HTU21D;63734;45.218;36.708;2023-02-25T20:07:13;9.27;98.29
75153;HTU21D;63734;45.218;36.708;2023-02-25T20:09:40;9.30;98.19
75153;HTU21D;63734;45.218;36.708;2023-02-25T20:12:07;9.32;98.11
75153;HTU21D;63734;45.218;36.708;2023-02-25T20:14:34;9.34;98.00
75153;HTU21D;63734;45.218;36.708;2023-02-25T20:17:00;9.36;97.90
75153;HTU21D;63734;45.218;36.708;2023-02-25T20:19:27;9.35;97.81